Eltham, United Kingdom
Current Conditions -  °F | °C
As of 3:20 PM on Wednesday 22 Oct 2014 (Local Time) from EGLC Reporting Station
Few Clouds Few Clouds  
Wind Chill: 57°   Ceiling: Unl
Heat Index: 57°   Visibility: 6mi
Dew Point: 43°   Wind: 13mph
Humidity: 59%   Direction: 280°W
Pressure: 30.24"   Gusts: NA
Location:  51.45°N, 0.06°E
Report Text: EGLC 221420Z 28011KT 9999 FEW035 14/06 Q1024
Loading
Personal Weather Stations






























Interactive Weather Map New forecast layout! Learn more

10-Day Weather Forecast

Advertisements
Track Severe Weather on mobile